PWSweather.com
Personal Weather Stations
Station Observations
VPOKROGLO
Kal Nad Kanalom, PrimorskaSI

Kal Nad KanalomPrimorskaSI

Lat: 46.072, Lon: 13.734

Elevation: 2526

Station Type: WS-2355

http://www.okroglovreme.com

Latest ConditionsUpdated 5:15:01 PM GMT+01:01 Saturday, May 23, 2015
Currently Today's Max Today's Min Today's Average
Temperature 49.8°F9.9°C 52.3°F11.3°C 48.2°F9.0°C 49.7°F9.8°C
Dew Point 44.5°F6.9°C 47.9°F8.8°C 41.5°F5.3°C 44.4°F6.9°C
Winds 1.8 mph N2.9 kmh N 6.0 mph N9.7 kmh N - 1.7 mph 2.7 kmh
Wind Gusts 7.4 mph11.9 kmh 23.9 mph38.5 kmh - -
Humidity 82% 93% 69% 82%
Pressure 29.91 in1012.9 mb 29.93 in1013.5 mb 29.83 in1010.2 mb -
Precipitation - 0.45 in11.4 mm - -
Hour Temp Dew Point Humidity Winds Wind Gusts Pressure Precip Precip Rate Daily Precip Total
05:15 PM 49.8°F9.9°C 44.5°F6.9°C 82% 1.8 mph N2.9 kmh N 7.4 mph11.9 kmh 29.91 in1012.9 mb 0.00 in0.0 mm 0.00 in0.0 mm 0.45 in11.4 mm
05:00 PM 49.6°F9.8°C 44.7°F7.1°C 83% 0.8 mph NNE1.3 kmh NNE 6.3 mph10.1 kmh 29.91 in1012.9 mb 0.00 in0.0 mm 0.00 in0.0 mm 0.45 in11.4 mm
04:45 PM 49.3°F9.6°C 45.0°F7.2°C 85% 0.8 mph N1.3 kmh N 6.7 mph10.8 kmh 29.91 in1012.9 mb 0.00 in0.0 mm 0.00 in0.0 mm 0.45 in11.4 mm
04:30 PM 49.6°F9.8°C 45.6°F7.6°C 86% 0.7 mph NNE1.1 kmh NNE 6.9 mph11.1 kmh 29.92 in1013.2 mb 0.00 in0.0 mm 0.00 in0.0 mm 0.45 in11.4 mm
04:15 PM 49.8°F9.9°C 46.1°F7.8°C 87% 0.7 mph N1.1 kmh N 5.8 mph9.3 kmh 29.91 in1012.9 mb 0.00 in0.0 mm 0.00 in0.0 mm 0.45 in11.4 mm
04:00 PM 49.3°F9.6°C 45.9°F7.7°C 88% 0.6 mph N1.0 kmh N 3.6 mph5.8 kmh 29.92 in1013.2 mb 0.00 in0.0 mm 0.00 in0.0 mm 0.45 in11.4 mm
03:45 PM 48.7°F9.3°C 45.3°F7.4°C 88% 1.1 mph NNE1.8 kmh NNE 7.8 mph12.6 kmh 29.92 in1013.2 mb 0.02 in0.5 mm 0.00 in0.0 mm 0.45 in11.4 mm
03:30 PM 48.6°F9.2°C 45.5°F7.5°C 89% 1.1 mph N1.8 kmh N 6.5 mph10.5 kmh 29.92 in1013.2 mb 0.04 in1.0 mm 0.00 in0.0 mm 0.45 in11.4 mm
03:15 PM 48.4°F9.1°C 45.3°F7.4°C 89% 0.4 mph N0.6 kmh N 3.6 mph5.8 kmh 29.92 in1013.2 mb 0.06 in1.5 mm 0.00 in0.0 mm 0.45 in11.4 mm
03:00 PM 48.7°F9.3°C 45.6°F7.6°C 89% 0.5 mph NNE0.8 kmh NNE 2.7 mph4.3 kmh 29.92 in1013.2 mb 0.08 in2.0 mm 0.03 in0.8 mm 0.45 in11.4 mm
02:45 PM 48.9°F9.4°C 46.1°F7.8°C 90% 0.5 mph N0.8 kmh N 4.5 mph7.2 kmh 29.92 in1013.2 mb 0.06 in1.5 mm 0.00 in0.0 mm 0.43 in10.9 mm
02:30 PM 48.9°F9.4°C 46.1°F7.8°C 90% 0.6 mph NNE1.0 kmh NNE 5.1 mph8.2 kmh 29.93 in1013.5 mb 0.06 in1.5 mm 0.00 in0.0 mm 0.41 in10.4 mm
02:15 PM 49.3°F9.6°C 46.5°F8.1°C 90% 0.5 mph N0.8 kmh N 3.1 mph5.0 kmh 29.93 in1013.5 mb 0.06 in1.5 mm 0.08 in2.0 mm 0.39 in9.9 mm
02:00 PM 49.8°F9.9°C 47.0°F8.3°C 90% 0.3 mph N0.5 kmh N 3.6 mph5.8 kmh 29.92 in1013.2 mb 0.04 in1.0 mm 0.00 in0.0 mm 0.37 in9.4 mm
01:45 PM 50.2°F10.1°C 47.7°F8.7°C 91% 0.2 mph N0.3 kmh N 1.8 mph2.9 kmh 29.92 in1013.2 mb 0.06 in1.5 mm 0.00 in0.0 mm 0.37 in9.4 mm
01:30 PM 50.2°F10.1°C 47.9°F8.8°C 92% Calm Calm 0.7 mph1.1 kmh 29.92 in1013.2 mb 0.06 in1.5 mm 0.00 in0.0 mm 0.35 in8.9 mm
01:15 PM 49.8°F9.9°C 47.6°F8.7°C 92% Calm Calm -- 29.92 in1013.2 mb 0.06 in1.5 mm 0.00 in0.0 mm 0.33 in8.4 mm
01:00 PM 49.3°F9.6°C 47.3°F8.5°C 93% Calm Calm -- 29.92 in1013.2 mb 0.08 in2.0 mm 0.00 in0.0 mm 0.33 in8.4 mm
12:45 PM 49.3°F9.6°C 47.3°F8.5°C 93% Calm Calm -- 29.92 in1013.2 mb 0.08 in2.0 mm 0.08 in2.0 mm 0.31 in7.9 mm
12:30 PM 49.1°F9.5°C 47.2°F8.4°C 93% Calm Calm 0.9 mph1.4 kmh 29.92 in1013.2 mb 0.06 in1.5 mm 0.00 in0.0 mm 0.29 in7.4 mm
12:15 PM 48.9°F9.4°C 47.0°F8.3°C 93% Calm Calm -- 29.91 in1012.9 mb 0.06 in1.5 mm 0.08 in2.0 mm 0.26 in6.6 mm
12:00 PM 48.7°F9.3°C 46.8°F8.2°C 93% 0.1 mph WNW0.2 kmh WNW 1.6 mph2.6 kmh 29.91 in1012.9 mb 0.04 in1.0 mm 0.00 in0.0 mm 0.24 in6.1 mm
11:45 AM 48.7°F9.3°C 46.5°F8.1°C 92% 0.3 mph NW0.5 kmh NW 2.5 mph4.0 kmh 29.91 in1012.9 mb 0.04 in1.0 mm 0.00 in0.0 mm 0.22 in5.6 mm
11:30 AM 48.7°F9.3°C 46.5°F8.1°C 92% 0.2 mph WNW0.3 kmh WNW 2.0 mph3.2 kmh 29.91 in1012.9 mb 0.06 in1.5 mm 0.00 in0.0 mm 0.22 in5.6 mm
11:15 AM 48.9°F9.4°C 46.7°F8.2°C 92% Calm Calm 1.6 mph2.6 kmh 29.91 in1012.9 mb 0.06 in1.5 mm 0.00 in0.0 mm 0.20 in5.1 mm
11:00 AM 48.9°F9.4°C 46.7°F8.2°C 92% 0.2 mph NW0.3 kmh NW 2.5 mph4.0 kmh 29.91 in1012.9 mb 0.06 in1.5 mm 0.00 in0.0 mm 0.20 in5.1 mm
10:45 AM 48.7°F9.3°C 46.5°F8.1°C 92% 0.3 mph NW0.5 kmh NW 2.5 mph4.0 kmh 29.91 in1012.9 mb 0.06 in1.5 mm 0.00 in0.0 mm 0.18 in4.6 mm
10:30 AM 48.7°F9.3°C 46.5°F8.1°C 92% 0.3 mph NW0.5 kmh NW 2.7 mph4.3 kmh 29.91 in1012.9 mb 0.06 in1.5 mm 0.00 in0.0 mm 0.16 in4.1 mm
10:15 AM 48.7°F9.3°C 46.2°F7.9°C 91% Calm Calm -- 29.91 in1012.9 mb 0.06 in1.5 mm 0.00 in0.0 mm 0.14 in3.6 mm
10:00 AM 48.4°F9.1°C 45.9°F7.7°C 91% Calm Calm -- 29.91 in1012.9 mb 0.08 in2.0 mm 0.00 in0.0 mm 0.14 in3.6 mm
09:45 AM 48.2°F9.0°C 45.4°F7.4°C 90% 0.1 mph NW0.2 kmh NW 2.0 mph3.2 kmh 29.90 in1012.5 mb 0.08 in2.0 mm 0.08 in2.0 mm 0.12 in3.0 mm
09:30 AM 48.7°F9.3°C 45.9°F7.7°C 90% Calm Calm -- 29.89 in1012.2 mb 0.06 in1.5 mm 0.08 in2.0 mm 0.10 in2.5 mm
09:15 AM 48.7°F9.3°C 45.6°F7.6°C 89% Calm Calm 1.3 mph2.1 kmh 29.89 in1012.2 mb 0.04 in1.0 mm 0.00 in0.0 mm 0.08 in2.0 mm
09:00 AM 48.7°F9.3°C 45.3°F7.4°C 88% Calm Calm -- 29.89 in1012.2 mb 0.04 in1.0 mm 0.03 in0.8 mm 0.06 in1.5 mm
08:45 AM 48.9°F9.4°C 44.9°F7.2°C 86% 0.1 mph WSW0.2 kmh WSW 2.2 mph3.5 kmh 29.89 in1012.2 mb 0.02 in0.5 mm 0.00 in0.0 mm 0.04 in1.0 mm
08:30 AM 49.3°F9.6°C 44.6°F7.0°C 84% Calm Calm -- 29.89 in1012.2 mb 0.02 in0.5 mm 0.00 in0.0 mm 0.04 in1.0 mm
08:15 AM 50.4°F10.2°C 44.7°F7.1°C 81% 0.1 mph W0.2 kmh W 2.2 mph3.5 kmh 29.87 in1011.5 mb 0.02 in0.5 mm 0.08 in2.0 mm 0.04 in1.0 mm
08:00 AM 51.3°F10.7°C 44.3°F6.8°C 77% Calm Calm 0.9 mph1.4 kmh 29.87 in1011.5 mb 0.00 in0.0 mm 0.00 in0.0 mm 0.02 in0.5 mm
07:45 AM 52.0°F11.1°C 44.3°F6.8°C 75% Calm Calm -- 29.87 in1011.5 mb 0.00 in0.0 mm 0.00 in0.0 mm 0.02 in0.5 mm
07:30 AM 52.3°F11.3°C 43.6°F6.4°C 72% 0.3 mph SSW0.5 kmh SSW 2.2 mph3.5 kmh 29.86 in1011.2 mb 0.00 in0.0 mm 0.00 in0.0 mm 0.02 in0.5 mm
07:15 AM 52.3°F11.3°C 43.2°F6.2°C 71% 0.2 mph NW0.3 kmh NW 3.6 mph5.8 kmh 29.86 in1011.2 mb 0.00 in0.0 mm 0.00 in0.0 mm 0.02 in0.5 mm
07:00 AM 52.3°F11.3°C 42.8°F6.0°C 70% 0.5 mph NNW0.8 kmh NNW 6.7 mph10.8 kmh 29.86 in1011.2 mb 0.00 in0.0 mm 0.00 in0.0 mm 0.02 in0.5 mm
06:45 AM 52.3°F11.3°C 42.5°F5.8°C 69% 1.2 mph NNW1.9 kmh NNW 6.5 mph10.5 kmh 29.85 in1010.8 mb 0.00 in0.0 mm 0.00 in0.0 mm 0.02 in0.5 mm
06:30 AM 52.0°F11.1°C 42.5°F5.8°C 70% 0.3 mph N0.5 kmh N 4.7 mph7.6 kmh 29.85 in1010.8 mb 0.00 in0.0 mm 0.00 in0.0 mm 0.02 in0.5 mm
06:15 AM 51.6°F10.9°C 42.2°F5.7°C 70% 1.1 mph NNE1.8 kmh NNE 10.7 mph17.2 kmh 29.84 in1010.5 mb 0.00 in0.0 mm 0.00 in0.0 mm 0.02 in0.5 mm
06:00 AM 51.6°F10.9°C 42.2°F5.7°C 70% 0.8 mph N1.3 kmh N 7.6 mph12.2 kmh 29.84 in1010.5 mb 0.00 in0.0 mm 0.00 in0.0 mm 0.02 in0.5 mm
05:45 AM 51.6°F10.9°C 42.2°F5.7°C 70% 2.8 mph NNE4.5 kmh NNE 11.4 mph18.3 kmh 29.84 in1010.5 mb 0.00 in0.0 mm 0.00 in0.0 mm 0.02 in0.5 mm
05:30 AM 51.3°F10.7°C 41.8°F5.4°C 70% 2.0 mph NNE3.2 kmh NNE 11.9 mph19.2 kmh 29.84 in1010.5 mb 0.00 in0.0 mm 0.00 in0.0 mm 0.02 in0.5 mm
05:15 AM 51.1°F10.6°C 41.6°F5.3°C 70% 3.6 mph N5.8 kmh N 11.9 mph19.2 kmh 29.84 in1010.5 mb 0.00 in0.0 mm 0.00 in0.0 mm 0.02 in0.5 mm
05:00 AM 51.1°F10.6°C 41.6°F5.3°C 70% 4.2 mph NNE6.8 kmh NNE 14.3 mph23.0 kmh 29.84 in1010.5 mb 0.00 in0.0 mm 0.00 in0.0 mm 0.02 in0.5 mm
04:45 AM 50.7°F10.4°C 42.0°F5.6°C 72% 3.2 mph NNE5.1 kmh NNE 9.4 mph15.1 kmh 29.83 in1010.2 mb 0.00 in0.0 mm 0.00 in0.0 mm 0.02 in0.5 mm
04:30 AM 50.5°F10.3°C 41.5°F5.3°C 71% 4.7 mph NNE7.6 kmh NNE 12.1 mph19.5 kmh 29.84 in1010.5 mb 0.00 in0.0 mm 0.00 in0.0 mm 0.02 in0.5 mm
04:15 AM 50.2°F10.1°C 41.5°F5.3°C 72% 5.0 mph NNE8.0 kmh NNE 13.2 mph21.2 kmh 29.84 in1010.5 mb 0.00 in0.0 mm 0.00 in0.0 mm 0.02 in0.5 mm
04:00 AM 49.6°F9.8°C 42.0°F5.6°C 75% 4.0 mph NE6.4 kmh NE 10.3 mph16.6 kmh 29.84 in1010.5 mb 0.00 in0.0 mm 0.00 in0.0 mm 0.02 in0.5 mm
03:45 AM 49.3°F9.6°C 42.4°F5.8°C 77% 3.5 mph N5.6 kmh N 11.0 mph17.7 kmh 29.84 in1010.5 mb 0.00 in0.0 mm 0.00 in0.0 mm 0.02 in0.5 mm
03:30 AM 48.9°F9.4°C 42.7°F5.9°C 79% 3.6 mph N5.8 kmh N 10.7 mph17.2 kmh 29.86 in1011.2 mb 0.00 in0.0 mm 0.00 in0.0 mm 0.02 in0.5 mm
03:15 AM 48.6°F9.2°C 42.7°F5.9°C 80% 2.6 mph N4.2 kmh N 8.5 mph13.7 kmh 29.86 in1011.2 mb 0.00 in0.0 mm 0.00 in0.0 mm 0.02 in0.5 mm
03:00 AM 48.7°F9.3°C 42.5°F5.8°C 79% 2.9 mph WSW4.7 kmh WSW 7.6 mph12.2 kmh 29.87 in1011.5 mb 0.00 in0.0 mm 0.00 in0.0 mm 0.02 in0.5 mm
02:45 AM 48.9°F9.4°C 42.7°F5.9°C 79% 3.8 mph NNE6.1 kmh NNE 15.4 mph24.8 kmh 29.86 in1011.2 mb 0.00 in0.0 mm 0.00 in0.0 mm 0.02 in0.5 mm
02:30 AM 49.3°F9.6°C 42.7°F5.9°C 78% 3.4 mph N5.5 kmh N 8.7 mph14.0 kmh 29.86 in1011.2 mb 0.00 in0.0 mm 0.00 in0.0 mm 0.02 in0.5 mm
02:15 AM 49.8°F9.9°C 42.2°F5.7°C 75% 6.0 mph N9.7 kmh N 18.3 mph29.5 kmh 29.85 in1010.8 mb 0.00 in0.0 mm 0.00 in0.0 mm 0.02 in0.5 mm
02:00 AM 50.4°F10.2°C 42.0°F5.6°C 73% 5.9 mph N9.5 kmh N 20.6 mph33.2 kmh 29.85 in1010.8 mb 0.00 in0.0 mm 0.00 in0.0 mm 0.02 in0.5 mm
01:45 AM 50.2°F10.1°C 41.9°F5.5°C 73% 5.0 mph N8.0 kmh N 11.2 mph18.0 kmh 29.86 in1011.2 mb 0.00 in0.0 mm 0.00 in0.0 mm 0.02 in0.5 mm
01:30 AM 49.8°F9.9°C 41.9°F5.5°C 74% 5.8 mph N9.3 kmh N 23.9 mph38.5 kmh 29.86 in1011.2 mb 0.00 in0.0 mm 0.00 in0.0 mm 0.02 in0.5 mm
01:15 AM 48.9°F9.4°C 42.4°F5.8°C 78% 4.8 mph N7.7 kmh N 12.3 mph19.8 kmh 29.87 in1011.5 mb 0.00 in0.0 mm 0.00 in0.0 mm 0.02 in0.5 mm
01:00 AM 48.4°F9.1°C 42.5°F5.8°C 80% 3.3 mph N5.3 kmh N 11.9 mph19.2 kmh 29.87 in1011.5 mb 0.00 in0.0 mm 0.00 in0.0 mm 0.02 in0.5 mm
12:45 AM 48.4°F9.1°C 42.8°F6.0°C 81% 4.1 mph N6.6 kmh N 8.3 mph13.4 kmh 29.87 in1011.5 mb 0.02 in0.5 mm 0.00 in0.0 mm 0.02 in0.5 mm
12:30 AM 48.6°F9.2°C 43.0°F6.1°C 81% 4.1 mph N6.6 kmh N 11.4 mph18.3 kmh 29.88 in1011.9 mb 0.02 in0.5 mm 0.00 in0.0 mm 0.02 in0.5 mm
12:15 AM 48.6°F9.2°C 43.0°F6.1°C 81% 5.9 mph N9.5 kmh N 14.8 mph23.8 kmh 29.86 in1011.2 mb 0.02 in0.5 mm 0.00 in0.0 mm 0.02 in0.5 mm
12:00 AM 48.6°F9.2°C 43.0°F6.1°C 81% 5.2 mph N8.4 kmh N 15.0 mph24.1 kmh 29.87 in1011.5 mb 0.02 in0.5 mm 0.00 in0.0 mm 0.02 in0.5 mm